Time;durP1;ratioP1;P1;durP2;ratioP2;P2;SDS_P1;SDS_P2;PMS_P1;PMS_P2;Temp;Humidity;BMP_temperature;BMP_pressure;BME280_temperature;BME280_humidity;BME280_pressure;Samples;Min_cycle;Max_cycle;Signal;HPM_P1;HPM_P2
2022/03/20 00:00:26;;;;;;;21.85;15.30;;;20.00;52.30;;;;;;5027502;28;20053;-57
2022/03/20 00:02:52;;;;;;;21.63;15.75;;;20.00;52.30;;;;;;5021869;28;20122;-56
2022/03/20 00:05:18;;;;;;;21.85;15.50;;;20.00;52.30;;;;;;5019096;28;20056;-57
2022/03/20 00:07:46;;;;;;;21.95;15.27;;;20.00;52.30;;;;;;5020850;28;20494;-57
2022/03/20 00:10:11;;;;;;;21.92;15.88;;;19.90;52.30;;;;;;5015647;28;20045;-57
2022/03/20 00:12:37;;;;;;;20.98;15.07;;;19.90;52.30;;;;;;5021962;28;20029;-57
2022/03/20 00:15:03;;;;;;;20.95;14.75;;;19.90;52.30;;;;;;5017257;28;20033;-57
2022/03/20 00:17:29;;;;;;;21.23;15.15;;;19.90;52.30;;;;;;5020073;28;20068;-57
2022/03/20 00:19:55;;;;;;;20.73;14.60;;;19.90;52.40;;;;;;5017853;28;20479;-57
2022/03/20 00:22:21;;;;;;;22.10;14.63;;;19.90;52.40;;;;;;5019078;28;20448;-57
2022/03/20 00:24:47;;;;;;;21.85;14.52;;;19.90;52.50;;;;;;5016783;28;20061;-57
2022/03/20 00:27:13;;;;;;;20.50;14.60;;;19.80;52.40;;;;;;5021239;28;20462;-57
2022/03/20 00:29:39;;;;;;;21.90;14.32;;;19.80;52.50;;;;;;5019351;28;20067;-57
2022/03/20 00:32:05;;;;;;;20.83;14.45;;;19.80;52.40;;;;;;5016662;28;20045;-57
2022/03/20 00:34:31;;;;;;;21.02;14.90;;;19.80;52.40;;;;;;5019191;28;20037;-57
2022/03/20 00:36:57;;;;;;;21.02;13.90;;;19.70;52.40;;;;;;5027227;28;20545;-57
2022/03/20 00:39:22;;;;;;;21.15;14.15;;;19.80;52.50;;;;;;5023754;28;20037;-57
2022/03/20 00:41:48;;;;;;;22.75;15.13;;;19.70;52.40;;;;;;5023156;28;20029;-57
2022/03/20 00:44:14;;;;;;;21.08;13.93;;;19.70;52.40;;;;;;5024390;28;20037;-57
2022/03/20 00:46:39;;;;;;;18.70;13.35;;;19.70;52.40;;;;;;5023473;28;20100;-57
2022/03/20 00:49:05;;;;;;;19.33;13.73;;;19.70;52.50;;;;;;5026020;28;20041;-57
2022/03/20 00:51:31;;;;;;;20.80;14.07;;;19.70;52.50;;;;;;5021704;28;20494;-57
2022/03/20 00:53:57;;;;;;;20.20;14.02;;;19.60;52.40;;;;;;5020971;28;20044;-57
2022/03/20 00:56:23;;;;;;;18.92;13.48;;;19.60;52.40;;;;;;5022674;28;20105;-57
2022/03/20 00:58:48;;;;;;;21.02;14.25;;;19.60;52.50;;;;;;5026224;28;20026;-57
2022/03/20 01:01:14;;;;;;;19.92;14.18;;;19.60;52.50;;;;;;5026279;28;20437;-57
2022/03/20 01:03:43;;;;;;;19.67;14.02;;;19.60;52.50;;;;;;5019615;28;20176;-57
2022/03/20 01:06:09;;;;;;;18.20;12.90;;;19.50;52.40;;;;;;5020193;28;20131;-57
2022/03/20 01:08:35;;;;;;;21.42;13.73;;;19.50;52.40;;;;;;5021474;28;20025;-57
2022/03/20 01:11:05;;;;;;;18.98;13.35;;;19.50;52.40;;;;;;5021669;28;20072;-57
2022/03/20 01:13:30;;;;;;;18.88;13.32;;;19.50;52.40;;;;;;5021582;28;20025;-57
2022/03/20 01:15:56;;;;;;;19.60;13.70;;;19.50;52.60;;;;;;5019404;28;20529;-57
2022/03/20 01:18:24;;;;;;;18.88;13.73;;;19.50;52.40;;;;;;5023763;28;20049;-57
2022/03/20 01:20:53;;;;;;;18.95;12.82;;;19.50;52.50;;;;;;5024541;28;20037;-57
2022/03/20 01:23:22;;;;;;;17.10;12.43;;;19.40;52.40;;;;;;5051543;28;20042;-57
2022/03/20 01:25:49;;;;;;;18.58;13.32;;;19.40;52.50;;;;;;5021822;28;20075;-57
2022/03/20 01:28:15;;;;;;;20.90;13.45;;;19.40;52.50;;;;;;5020805;28;20065;-57
2022/03/20 01:30:41;;;;;;;18.73;13.60;;;19.40;52.50;;;;;;5020574;28;20036;-57
2022/03/20 01:33:06;;;;;;;18.70;13.35;;;19.40;52.50;;;;;;5024563;28;20410;-57
2022/03/20 01:35:33;;;;;;;18.63;12.82;;;19.40;52.50;;;;;;5024312;28;20045;-57
2022/03/20 01:37:59;;;;;;;18.52;12.77;;;19.30;52.50;;;;;;5019159;28;20453;-57
2022/03/20 01:40:25;;;;;;;17.88;12.85;;;19.30;52.50;;;;;;5020480;28;20033;-57
2022/03/20 01:42:51;;;;;;;19.80;13.35;;;19.30;52.40;;;;;;5018701;28;20038;-57
2022/03/20 01:45:20;;;;;;;20.13;13.88;;;19.30;52.40;;;;;;5016733;28;20085;-57
2022/03/20 01:47:47;;;;;;;18.45;13.35;;;19.30;52.40;;;;;;5015778;28;20026;-57
2022/03/20 01:50:23;;;;;;;21.33;13.20;;;19.20;52.30;;;;;;5017997;28;20035;-57
2022/03/20 01:52:49;;;;;;;19.02;12.93;;;19.20;52.30;;;;;;5018565;28;20026;-57
2022/03/20 01:55:15;;;;;;;18.83;13.15;;;19.20;52.20;;;;;;5023816;28;20037;-57
2022/03/20 01:57:41;;;;;;;18.88;12.88;;;19.20;52.20;;;;;;5016455;28;20016;-57
2022/03/20 02:00:08;;;;;;;18.58;13.05;;;19.20;52.30;;;;;;5021068;28;20051;-57
2022/03/20 02:02:33;;;;;;;18.38;13.27;;;19.20;52.30;;;;;;5025287;28;20032;-57
2022/03/20 02:04:59;;;;;;;18.55;13.05;;;19.10;52.10;;;;;;5017967;28;20026;-57
2022/03/20 02:07:25;;;;;;;17.67;12.73;;;19.10;52.10;;;;;;5015887;28;20052;-57
2022/03/20 02:09:51;;;;;;;19.75;12.60;;;19.10;52.10;;;;;;5017805;28;20551;-56
2022/03/20 02:12:16;;;;;;;19.50;13.65;;;19.10;52.10;;;;;;5016048;28;20022;-56
2022/03/20 02:14:42;;;;;;;19.38;13.45;;;19.10;52.20;;;;;;5020796;28;20050;-56
2022/03/20 02:17:10;;;;;;;19.33;13.48;;;19.10;52.20;;;;;;5022096;28;20030;-56
2022/03/20 02:19:37;;;;;;;18.50;12.82;;;19.10;52.20;;;;;;5019950;28;20037;-57
2022/03/20 02:22:03;;;;;;;17.98;12.95;;;19.10;52.20;;;;;;5019113;28;20022;-56
2022/03/20 02:24:36;;;;;;;18.15;12.50;;;19.00;52.20;;;;;;5017231;28;20038;-57
2022/03/20 02:27:03;;;;;;;16.63;11.98;;;19.00;52.10;;;;;;5024595;28;20037;-57
2022/03/20 02:29:29;;;;;;;18.08;12.98;;;19.00;52.20;;;;;;5020416;28;20095;-56
2022/03/20 02:31:54;;;;;;;17.55;12.63;;;19.00;52.30;;;;;;5023366;28;20030;-56
2022/03/20 02:34:20;;;;;;;17.48;12.05;;;19.00;52.20;;;;;;5022570;28;20037;-57
2022/03/20 02:36:46;;;;;;;18.95;12.13;;;18.90;52.10;;;;;;5022184;28;20034;-56
2022/03/20 02:39:11;;;;;;;19.25;12.45;;;18.90;52.10;;;;;;5025229;28;20494;-56
2022/03/20 02:41:38;;;;;;;17.50;12.43;;;18.90;52.10;;;;;;5020892;28;20080;-56
2022/03/20 02:44:04;;;;;;;18.75;12.52;;;18.90;52.10;;;;;;5040493;28;20474;-56
2022/03/20 02:46:32;;;;;;;17.60;12.13;;;18.90;52.10;;;;;;5023285;28;20017;-56
2022/03/20 02:48:58;;;;;;;16.75;11.85;;;18.90;52.20;;;;;;5019882;28;20163;-57
2022/03/20 02:51:24;;;;;;;17.48;12.48;;;18.90;52.10;;;;;;5020455;28;20580;-56
2022/03/20 02:53:50;;;;;;;17.33;12.13;;;18.80;52.10;;;;;;5020596;28;20506;-56
2022/03/20 02:56:15;;;;;;;17.88;12.23;;;18.80;52.10;;;;;;5021766;28;20380;-56
2022/03/20 02:58:41;;;;;;;18.13;12.77;;;18.80;52.10;;;;;;5019058;28;20061;-56
2022/03/20 03:01:06;;;;;;;18.05;12.15;;;18.80;52.10;;;;;;5021310;28;20127;-57
2022/03/20 03:03:33;;;;;;;17.30;11.73;;;18.80;52.20;;;;;;5019194;28;20048;-56
2022/03/20 03:06:02;;;;;;;18.55;12.57;;;18.80;52.20;;;;;;5021368;28;20684;-56
2022/03/20 03:11:11;;;;;;;16.38;11.55;;;18.80;52.20;;;;;;5018646;28;20448;-56
2022/03/20 03:13:38;;;;;;;17.40;12.73;;;18.70;52.20;;;;;;5017512;28;20041;-56
2022/03/20 03:16:06;;;;;;;17.98;11.75;;;18.70;52.20;;;;;;5020751;28;20498;-56
2022/03/20 03:18:31;;;;;;;17.48;11.73;;;18.70;52.30;;;;;;5024706;28;20048;-56
2022/03/20 03:20:57;;;;;;;17.52;11.55;;;18.70;52.20;;;;;;5023073;28;20111;-56
2022/03/20 03:23:26;;;;;;;16.40;11.50;;;18.70;52.30;;;;;;5023539;28;20068;-56
2022/03/20 03:25:52;;;;;;;16.17;11.80;;;18.70;52.30;;;;;;5021617;28;20429;-56
2022/03/20 03:28:17;;;;;;;16.73;11.82;;;18.70;52.30;;;;;;5011929;28;20025;-56
2022/03/20 03:30:45;;;;;;;16.73;11.65;;;18.70;52.30;;;;;;5017818;28;20032;-56
2022/03/20 03:33:11;;;;;;;17.17;12.48;;;18.60;52.30;;;;;;5018385;28;20512;-57
2022/03/20 03:35:44;;;;;;;15.98;11.40;;;18.60;52.30;;;;;;5019524;28;20497;-56
2022/03/20 03:38:13;;;;;;;15.48;10.75;;;18.60;52.30;;;;;;5019554;28;20033;-57
2022/03/20 03:40:39;;;;;;;15.57;11.48;;;18.60;52.30;;;;;;5022870;28;20069;-56
2022/03/20 03:43:05;;;;;;;16.77;12.13;;;18.60;52.40;;;;;;5019593;28;20136;-56
2022/03/20 03:45:31;;;;;;;17.52;11.70;;;18.60;52.40;;;;;;5023513;28;20077;-56
2022/03/20 03:47:56;;;;;;;14.63;11.27;;;18.60;52.40;;;;;;5021345;28;20100;-56
2022/03/20 03:50:22;;;;;;;17.67;12.20;;;18.60;52.40;;;;;;5021498;28;20052;-56
2022/03/20 03:52:48;;;;;;;16.33;11.50;;;18.60;52.40;;;;;;5023721;28;20127;-56
2022/03/20 03:55:17;;;;;;;15.27;10.88;;;18.60;52.50;;;;;;5016988;28;20514;-57
2022/03/20 03:57:46;;;;;;;15.13;11.30;;;18.50;52.40;;;;;;5016859;28;20031;-56
2022/03/20 04:00:12;;;;;;;16.75;11.80;;;18.50;52.50;;;;;;5018704;28;20026;-56
2022/03/20 04:02:41;;;;;;;16.65;10.93;;;18.50;52.40;;;;;;5014245;28;20434;-56
2022/03/20 04:05:07;;;;;;;16.92;11.90;;;18.50;52.30;;;;;;5020426;28;20495;-56
2022/03/20 04:07:33;;;;;;;16.15;11.45;;;18.50;52.40;;;;;;5016319;28;20030;-56
2022/03/20 04:10:01;;;;;;;16.80;11.63;;;18.50;52.40;;;;;;5018540;28;20045;-56
2022/03/20 04:12:28;;;;;;;15.25;10.75;;;18.40;52.40;;;;;;5023222;28;20025;-56
2022/03/20 04:14:57;;;;;;;15.45;11.23;;;18.40;52.60;;;;;;5020367;28;20034;-56
2022/03/20 04:17:23;;;;;;;16.25;10.85;;;18.40;52.50;;;;;;5020757;28;20018;-56
2022/03/20 04:19:48;;;;;;;16.52;10.73;;;18.40;52.50;;;;;;5016827;28;20043;-56
2022/03/20 04:22:14;;;;;;;14.82;11.20;;;18.40;52.60;;;;;;5018759;28;20414;-57
2022/03/20 04:24:40;;;;;;;16.85;11.20;;;18.40;52.60;;;;;;5024466;28;20401;-56
2022/03/20 04:27:05;;;;;;;15.52;10.70;;;18.40;52.60;;;;;;5016710;28;20034;-57
2022/03/20 04:29:32;;;;;;;15.60;11.23;;;18.40;52.60;;;;;;5023079;28;20056;-57
2022/03/20 04:31:57;;;;;;;15.60;10.52;;;18.40;52.70;;;;;;5019068;28;20562;-56
2022/03/20 04:34:26;;;;;;;15.52;11.23;;;18.30;52.60;;;;;;5016255;28;20037;-57
2022/03/20 04:36:52;;;;;;;15.25;11.02;;;18.30;52.60;;;;;;5016267;28;20022;-56
2022/03/20 04:39:18;;;;;;;14.90;10.57;;;18.30;52.70;;;;;;5025571;28;20442;-57
2022/03/20 04:41:46;;;;;;;14.07;10.25;;;18.30;52.80;;;;;;5021586;28;20044;-57
2022/03/20 04:44:12;;;;;;;15.18;10.10;;;18.30;53.00;;;;;;5019837;28;20034;-57
2022/03/20 04:46:39;;;;;;;14.50;10.52;;;18.30;52.80;;;;;;5017331;28;20018;-56
2022/03/20 04:58:29;;;;;;;15.02;10.32;;;18.20;54.10;;;;;;5020677;28;20048;-56
2022/03/20 05:00:21;;;;;;;15.40;10.35;;;18.20;53.40;;;;;;5019015;28;20069;-57
2022/03/20 05:02:48;;;;;;;14.98;10.35;;;18.20;53.40;;;;;;5018204;28;20057;-56
2022/03/20 05:05:14;;;;;;;15.57;10.63;;;18.20;53.40;;;;;;5019916;28;20096;-57
2022/03/20 05:07:40;;;;;;;13.73;10.00;;;18.20;53.50;;;;;;5020846;28;20036;-57
2022/03/20 05:15:36;;;;;;;14.15;10.20;;;18.10;53.50;;;;;;5022523;28;20086;-56
2022/03/20 05:18:02;;;;;;;14.80;10.52;;;18.20;53.50;;;;;;5016710;28;20036;-57
2022/03/20 05:20:28;;;;;;;14.30;10.15;;;18.20;53.80;;;;;;5020767;28;20042;-57
2022/03/20 05:22:54;;;;;;;13.38;9.60;;;18.20;53.80;;;;;;5020677;28;20030;-57
2022/03/20 05:25:20;;;;;;;15.05;10.13;;;18.10;53.90;;;;;;5020172;28;20398;-57
2022/03/20 05:27:46;;;;;;;13.55;9.90;;;18.10;53.80;;;;;;5020543;28;20477;-57
2022/03/20 05:30:11;;;;;;;13.85;10.07;;;18.10;53.70;;;;;;5021683;28;20632;-57
2022/03/20 05:32:38;;;;;;;13.85;10.40;;;18.10;53.80;;;;;;5023192;28;20111;-56
2022/03/20 05:35:08;;;;;;;13.48;9.85;;;18.10;53.90;;;;;;5022326;28;20029;-57
2022/03/20 05:37:34;;;;;;;14.15;10.20;;;18.10;53.60;;;;;;5051132;28;20624;-56
2022/03/20 05:40:00;;;;;;;13.35;9.93;;;18.00;53.80;;;;;;5018277;28;20042;-56
2022/03/20 05:42:26;;;;;;;14.63;10.30;;;18.00;53.80;;;;;;5021896;28;20924;-57
2022/03/20 05:44:51;;;;;;;12.90;9.68;;;18.00;53.90;;;;;;5016723;28;20024;-56
2022/03/20 05:47:17;;;;;;;13.75;9.63;;;18.00;53.90;;;;;;5019588;28;20033;-57
2022/03/20 05:49:43;;;;;;;13.98;9.88;;;18.00;53.80;;;;;;5019299;28;20735;-57
2022/03/20 05:52:08;;;;;;;13.70;10.18;;;18.00;53.80;;;;;;5016798;28;20562;-57
2022/03/20 05:54:34;;;;;;;13.38;10.32;;;18.00;53.70;;;;;;5020133;28;20620;-56
2022/03/20 05:59:44;;;;;;;15.90;9.80;;;18.00;53.90;;;;;;5022025;28;20040;-57
2022/03/20 06:02:10;;;;;;;14.82;9.90;;;18.00;53.80;;;;;;5018626;28;20486;-56
2022/03/20 06:04:37;;;;;;;13.15;10.07;;;18.00;53.90;;;;;;5024122;28;20037;-56
2022/03/20 06:07:03;;;;;;;13.23;10.00;;;18.00;53.90;;;;;;5018526;28;20156;-56
2022/03/20 06:09:29;;;;;;;14.30;10.65;;;17.90;53.30;;;;;;5023540;28;20041;-56
2022/03/20 06:11:55;;;;;;;13.23;10.27;;;17.90;53.80;;;;;;5021665;28;20029;-56
2022/03/20 06:14:21;;;;;;;14.07;10.30;;;17.90;53.70;;;;;;5019054;28;20045;-57
2022/03/20 06:16:48;;;;;;;14.30;10.13;;;17.90;53.70;;;;;;5022472;28;20029;-56
2022/03/20 06:19:15;;;;;;;13.30;9.63;;;17.90;53.60;;;;;;5018490;28;20065;-57
2022/03/20 06:21:42;;;;;;;14.10;10.60;;;17.90;53.70;;;;;;5020814;28;20471;-57
2022/03/20 06:24:07;;;;;;;14.57;9.77;;;17.90;53.60;;;;;;5018043;28;20676;-56
2022/03/20 06:26:34;;;;;;;14.13;10.05;;;17.90;53.40;;;;;;5022494;28;20033;-56
2022/03/20 06:29:00;;;;;;;13.93;10.27;;;17.90;53.50;;;;;;5016349;28;20045;-57
2022/03/20 06:31:26;;;;;;;13.32;9.70;;;17.90;53.60;;;;;;5017415;28;20899;-56
2022/03/20 06:33:51;;;;;;;12.55;9.80;;;17.90;53.60;;;;;;5021518;28;20167;-56
2022/03/20 06:36:17;;;;;;;13.95;9.93;;;17.80;53.40;;;;;;5019569;28;20054;-57
2022/03/20 06:38:43;;;;;;;13.50;9.90;;;17.80;53.30;;;;;;5021033;28;20049;-56
2022/03/20 06:41:08;;;;;;;13.35;9.45;;;17.80;53.40;;;;;;5020631;28;20025;-57
2022/03/20 06:43:38;;;;;;;14.02;9.90;;;17.80;53.40;;;;;;5017132;28;20603;-56
2022/03/20 06:46:06;;;;;;;13.82;9.75;;;17.80;54.30;;;;;;5022048;28;20433;-56
2022/03/20 06:48:33;;;;;;;14.40;10.27;;;17.80;53.30;;;;;;5021049;28;20034;-56
2022/03/20 06:50:58;;;;;;;12.68;9.88;;;17.80;54.20;;;;;;5016597;28;20018;-56
2022/03/20 06:53:24;;;;;;;14.38;9.68;;;17.80;53.10;;;;;;5020643;28;20056;-57
2022/03/20 06:55:51;;;;;;;12.70;9.27;;;17.70;53.20;;;;;;5015831;28;20498;-56
2022/03/20 06:58:17;;;;;;;12.23;8.95;;;17.80;53.20;;;;;;5019725;28;20041;-56
2022/03/20 07:00:43;;;;;;;12.45;9.32;;;17.70;53.50;;;;;;5022914;28;20410;-56
2022/03/20 07:03:09;;;;;;;13.50;9.32;;;17.70;53.20;;;;;;5021577;28;20441;-56
2022/03/20 07:05:35;;;;;;;15.93;9.85;;;17.70;53.40;;;;;;5017746;28;20025;-57
2022/03/20 07:08:00;;;;;;;12.10;9.23;;;17.70;53.20;;;;;;5023583;28;20052;-56
2022/03/20 07:10:26;;;;;;;13.43;9.60;;;17.70;53.30;;;;;;5021049;28;22039;-56
2022/03/20 07:13:48;;;;;;;14.70;9.65;;;17.70;53.50;;;;;;5017886;28;20026;-56
2022/03/20 07:15:57;;;;;;;13.38;9.75;;;17.70;53.20;;;;;;5020978;28;20750;-57
2022/03/20 07:18:23;;;;;;;13.77;9.75;;;17.70;53.10;;;;;;5026625;28;20125;-56
2022/03/20 07:20:49;;;;;;;12.45;9.75;;;17.70;53.50;;;;;;5021889;28;20105;-56
2022/03/20 07:23:14;;;;;;;14.40;9.25;;;17.70;53.20;;;;;;5020107;28;20034;-57
2022/03/20 07:31:10;;;;;;;14.13;9.75;;;17.70;53.20;;;;;;5018891;28;20080;-57
2022/03/20 07:33:35;;;;;;;13.50;9.55;;;17.60;53.20;;;;;;5020967;28;20038;-56
2022/03/20 07:36:01;;;;;;;12.45;9.55;;;17.60;53.10;;;;;;5020802;28;20026;-56
2022/03/20 07:38:27;;;;;;;13.82;9.75;;;17.60;53.30;;;;;;5019359;28;20029;-57
2022/03/20 07:40:53;;;;;;;13.27;9.73;;;17.60;53.30;;;;;;5018362;28;20029;-56
2022/03/20 07:43:19;;;;;;;12.68;9.68;;;17.60;53.30;;;;;;5015366;28;20107;-56
2022/03/20 07:45:45;;;;;;;12.43;9.95;;;17.60;53.20;;;;;;5020169;28;20034;-57
2022/03/20 07:48:11;;;;;;;14.10;10.18;;;17.60;53.40;;;;;;5016598;28;20022;-56
2022/03/20 07:50:36;;;;;;;13.80;9.90;;;17.60;54.00;;;;;;5016629;28;20380;-56
2022/03/20 07:53:02;;;;;;;13.38;9.77;;;17.60;54.20;;;;;;5016497;28;20037;-56
2022/03/20 07:55:28;;;;;;;14.65;9.85;;;17.60;54.30;;;;;;5019175;28;20128;-56
2022/03/20 07:57:54;;;;;;;13.20;9.57;;;17.60;54.20;;;;;;5017070;28;20076;-56
2022/03/20 08:00:20;;;;;;;13.40;9.68;;;17.60;54.10;;;;;;5020373;28;20029;-56
2022/03/20 08:02:47;;;;;;;13.57;9.45;;;17.60;54.20;;;;;;5016677;28;20044;-56
2022/03/20 08:05:12;;;;;;;14.15;10.18;;;17.70;54.50;;;;;;5019131;28;20072;-56
2022/03/20 08:07:38;;;;;;;17.25;10.57;;;17.70;54.60;;;;;;5015513;28;20457;-56
2022/03/20 08:10:08;;;;;;;15.95;10.88;;;17.60;55.10;;;;;;5023873;28;20029;-56
2022/03/20 08:12:34;;;;;;;18.65;10.82;;;17.60;55.90;;;;;;5019839;28;20036;-56
2022/03/20 08:15:00;;;;;;;13.98;10.13;;;17.60;57.80;;;;;;5022496;28;20457;-56
2022/03/20 08:17:25;;;;;;;16.17;10.85;;;17.60;57.30;;;;;;5020265;28;20072;-56
2022/03/20 08:19:51;;;;;;;15.27;10.35;;;17.70;56.90;;;;;;5014784;28;20680;-56
2022/03/20 08:22:17;;;;;;;16.35;10.02;;;17.70;56.60;;;;;;5018428;28;20026;-56
2022/03/20 08:24:46;;;;;;;16.75;11.35;;;17.70;57.00;;;;;;5013762;28;20030;-56
2022/03/20 08:27:12;;;;;;;14.40;9.90;;;17.60;56.70;;;;;;5017767;28;20083;-56
2022/03/20 08:29:37;;;;;;;14.98;11.15;;;17.60;56.60;;;;;;5019248;28;20033;-56
2022/03/20 08:32:03;;;;;;;15.10;10.57;;;17.60;56.40;;;;;;5022104;28;20022;-55
2022/03/20 08:34:29;;;;;;;15.48;10.82;;;17.60;56.30;;;;;;5020611;28;20046;-56
2022/03/20 08:36:55;;;;;;;15.02;10.27;;;17.60;56.10;;;;;;5019054;28;20388;-56
2022/03/20 08:39:21;;;;;;;15.57;11.23;;;17.60;56.10;;;;;;5013629;28;20088;-56
2022/03/20 08:41:47;;;;;;;15.65;11.40;;;17.60;56.10;;;;;;5017787;28;20498;-55
2022/03/20 08:44:13;;;;;;;15.88;10.40;;;17.60;56.10;;;;;;5017488;28;20041;-56
2022/03/20 08:46:39;;;;;;;14.65;10.52;;;17.60;56.10;;;;;;5021359;28;20433;-56
2022/03/20 08:49:08;;;;;;;15.52;10.52;;;17.60;56.10;;;;;;5013359;28;20025;-56
2022/03/20 08:51:34;;;;;;;17.65;10.93;;;17.60;56.10;;;;;;5021601;28;20033;-56
2022/03/20 08:54:01;;;;;;;14.43;10.32;;;17.60;56.10;;;;;;5017215;28;20026;-56
2022/03/20 08:56:27;;;;;;;14.35;10.48;;;17.60;56.10;;;;;;5017311;28;20458;-56
2022/03/20 08:58:53;;;;;;;15.50;10.40;;;17.60;57.10;;;;;;5019744;28;20036;-56
2022/03/20 09:01:19;;;;;;;15.85;10.75;;;17.60;56.10;;;;;;5018028;28;20065;-56
2022/03/20 09:03:49;;;;;;;15.95;10.32;;;17.60;56.10;;;;;;5020606;28;20100;-55
2022/03/20 09:06:15;;;;;;;14.82;10.68;;;17.60;56.10;;;;;;5021766;28;20057;-55
2022/03/20 09:08:43;;;;;;;14.27;10.40;;;17.60;56.10;;;;;;5023369;28;20041;-56
2022/03/20 09:11:09;;;;;;;15.77;10.80;;;17.60;56.10;;;;;;5016672;28;20344;-56
2022/03/20 09:13:34;;;;;;;16.33;10.65;;;17.60;56.10;;;;;;5016481;28;20044;-56
2022/03/20 09:18:59;;;;;;;15.95;10.75;;;17.60;56.10;;;;;;5021779;28;20033;-56
2022/03/20 09:21:28;;;;;;;14.60;10.45;;;17.60;56.00;;;;;;5021642;28;20068;-55
2022/03/20 09:23:54;;;;;;;14.52;10.13;;;17.60;56.00;;;;;;5018843;28;20671;-56
2022/03/20 09:26:20;;;;;;;15.00;10.20;;;17.60;57.10;;;;;;5022037;28;20037;-57
2022/03/20 09:28:46;;;;;;;15.73;10.63;;;17.60;56.00;;;;;;5020016;28;20108;-55
2022/03/20 09:31:13;;;;;;;13.65;10.30;;;17.60;56.00;;;;;;5017304;28;20025;-55
2022/03/20 09:33:39;;;;;;;15.25;10.32;;;17.60;55.90;;;;;;5017246;28;20568;-55
2022/03/20 09:36:04;;;;;;;15.20;10.52;;;17.60;55.90;;;;;;5021627;28;20509;-55
2022/03/20 09:38:31;;;;;;;14.77;10.60;;;17.60;55.90;;;;;;5019942;28;20041;-56
2022/03/20 09:40:57;;;;;;;15.20;11.10;;;17.60;55.90;;;;;;5022876;28;20030;-55
2022/03/20 09:43:22;;;;;;;15.52;10.38;;;17.60;55.80;;;;;;5023183;28;20185;-55
2022/03/20 09:45:48;;;;;;;15.65;10.60;;;17.60;55.80;;;;;;5021328;28;20079;-56
2022/03/20 09:48:14;;;;;;;14.75;10.57;;;17.60;55.80;;;;;;5014368;28;20029;-55
2022/03/20 09:50:39;;;;;;;15.55;10.73;;;17.60;55.70;;;;;;5039939;28;20095;-55
2022/03/20 09:53:05;;;;;;;13.55;10.70;;;17.60;55.70;;;;;;5021261;28;20034;-56
2022/03/20 09:55:31;;;;;;;14.73;10.32;;;17.60;55.70;;;;;;5020481;28;20034;-56
2022/03/20 09:57:57;;;;;;;16.67;11.05;;;17.60;55.60;;;;;;5014826;28;20028;-55
2022/03/20 10:00:24;;;;;;;14.68;10.27;;;17.60;55.50;;;;;;5025220;28;20406;-56
2022/03/20 10:02:49;;;;;;;14.02;10.35;;;17.60;55.50;;;;;;5020505;28;20030;-56
2022/03/20 10:05:26;;;;;;;16.02;10.48;;;17.60;55.50;;;;;;5022530;28;20099;-56
2022/03/20 10:07:51;;;;;;;14.80;10.57;;;17.60;55.50;;;;;;5017949;28;20032;-56
2022/03/20 10:10:25;;;;;;;13.63;10.10;;;17.60;55.40;;;;;;5016009;28;20026;-56
2022/03/20 10:12:53;;;;;;;15.93;11.18;;;17.60;55.40;;;;;;5023109;28;20030;-56
2022/03/20 10:15:32;;;;;;;15.13;10.88;;;17.70;55.40;;;;;;5022823;28;20120;-55
2022/03/20 10:18:18;;;;;;;15.13;10.63;;;17.70;55.30;;;;;;5017276;28;20030;-56
2022/03/20 10:21:09;;;;;;;14.23;10.25;;;17.70;55.30;;;;;;5022018;28;20030;-56
2022/03/20 10:23:36;;;;;;;14.80;10.10;;;17.70;55.20;;;;;;5026615;28;20072;-59
2022/03/20 10:26:07;;;;;;;13.75;10.13;;;17.70;55.00;;;;;;5023691;28;20038;-59
2022/03/20 10:28:45;;;;;;;14.40;10.52;;;17.80;55.10;;;;;;5019275;28;20475;-59
2022/03/20 10:31:20;;;;;;;14.07;9.95;;;17.80;55.00;;;;;;5018718;28;20075;-60
2022/03/20 10:34:09;;;;;;;15.48;9.88;;;17.80;55.00;;;;;;5017204;28;20107;-59
2022/03/20 10:36:35;;;;;;;13.82;10.50;;;17.80;54.90;;;;;;5017792;28;20083;-59
2022/03/20 10:39:00;;;;;;;13.63;9.75;;;17.80;54.90;;;;;;5016306;28;20029;-60
2022/03/20 10:41:38;;;;;;;13.82;10.07;;;17.80;54.90;;;;;;5019816;28;20029;-60
2022/03/20 10:44:18;;;;;;;14.57;10.85;;;17.80;55.00;;;;;;5018521;28;20053;-59
2022/03/20 10:46:54;;;;;;;14.40;10.10;;;17.80;55.00;;;;;;5018451;28;20030;-59
2022/03/20 10:49:20;;;;;;;14.88;10.85;;;17.80;55.00;;;;;;5025045;28;20040;-59
2022/03/20 10:51:46;;;;;;;13.27;9.95;;;17.80;55.00;;;;;;5019026;28;20037;-59
2022/03/20 10:54:20;;;;;;;14.63;9.90;;;17.80;55.00;;;;;;5039333;28;20048;-59
2022/03/20 10:56:56;;;;;;;13.85;10.45;;;17.70;54.90;;;;;;5019205;28;20040;-59
2022/03/20 10:59:22;;;;;;;14.73;10.68;;;17.80;55.00;;;;;;5020550;28;20025;-59
2022/03/20 11:01:48;;;;;;;13.07;9.77;;;17.80;55.00;;;;;;5017071;28;20379;-59
2022/03/20 11:04:14;;;;;;;13.32;9.45;;;17.70;54.90;;;;;;5020278;28;20101;-59
2022/03/20 11:06:44;;;;;;;14.05;9.90;;;17.80;55.10;;;;;;5019700;28;20048;-59
2022/03/20 11:09:11;;;;;;;14.02;10.45;;;17.80;55.00;;;;;;5017458;28;20106;-60
2022/03/20 11:11:43;;;;;;;14.02;10.35;;;17.80;55.00;;;;;;5020260;28;20049;-60
2022/03/20 11:14:09;;;;;;;12.80;9.30;;;17.80;55.00;;;;;;5023136;28;20033;-59
2022/03/20 11:16:38;;;;;;;13.52;10.20;;;17.80;55.00;;;;;;5048687;28;20604;-59
2022/03/20 11:19:08;;;;;;;13.07;9.73;;;17.80;55.00;;;;;;5013898;28;20034;-60
2022/03/20 11:21:35;;;;;;;13.88;9.70;;;17.80;55.00;;;;;;5044807;28;20375;-59
2022/03/20 11:24:00;;;;;;;14.10;9.68;;;17.80;55.00;;;;;;5047412;28;20521;-59
2022/03/20 11:26:26;;;;;;;13.38;9.73;;;17.80;55.00;;;;;;5032752;28;20108;-59
2022/03/20 11:28:57;;;;;;;12.88;9.80;;;17.80;55.00;;;;;;5025416;28;20052;-59
2022/03/20 11:31:22;;;;;;;15.77;10.00;;;17.80;55.00;;;;;;5012343;28;20425;-59
2022/03/20 11:33:48;;;;;;;13.10;9.80;;;17.80;55.00;;;;;;5015659;28;20038;-59
2022/03/20 11:36:14;;;;;;;13.75;9.98;;;17.80;55.00;;;;;;5054899;28;20456;-59
2022/03/20 11:38:41;;;;;;;12.68;9.50;;;17.80;55.00;;;;;;5018141;28;20041;-59
2022/03/20 11:41:16;;;;;;;13.65;9.55;;;17.90;55.00;;;;;;5017409;28;20034;-60
2022/03/20 11:43:47;;;;;;;13.32;9.55;;;17.80;55.00;;;;;;5017613;28;20045;-60
2022/03/20 11:46:30;;;;;;;27.75;20.80;;;17.90;55.00;;;;;;5012970;28;20067;-60
2022/03/20 11:49:29;;;;;;;33.70;22.88;;;17.90;55.30;;;;;;5019821;28;20029;-60
2022/03/20 11:52:02;;;;;;;19.83;14.55;;;17.90;55.50;;;;;;5018505;28;20041;-60
2022/03/20 11:54:37;;;;;;;22.38;14.85;;;18.00;55.90;;;;;;5016902;28;21094;-60
2022/03/20 11:57:03;;;;;;;25.73;15.00;;;18.00;55.80;;;;;;5024604;28;20374;-60
2022/03/20 11:59:47;;;;;;;26.50;21.50;;;18.00;55.90;;;;;;5018928;28;20053;-59
2022/03/20 12:02:17;;;;;;;24.00;18.42;;;18.10;56.10;;;;;;5017100;28;20022;-59
2022/03/20 12:05:02;;;;;;;23.27;17.35;;;18.10;56.00;;;;;;5017306;28;20034;-59
2022/03/20 12:07:55;;;;;;;22.50;17.08;;;18.10;56.00;;;;;;5021689;28;20021;-59
2022/03/20 12:10:28;;;;;;;22.20;16.35;;;18.20;56.00;;;;;;5021561;28;20449;-60
2022/03/20 12:13:25;;;;;;;19.83;15.50;;;18.20;55.90;;;;;;5019253;28;20026;-59
2022/03/20 12:15:51;;;;;;;19.20;15.00;;;18.20;55.80;;;;;;5015107;28;20041;-60
2022/03/20 12:18:18;;;;;;;20.55;15.00;;;18.30;55.70;;;;;;5027839;28;20021;-59
2022/03/20 12:20:59;;;;;;;18.50;14.98;;;18.40;55.70;;;;;;5019935;28;20040;-59
2022/03/20 12:23:43;;;;;;;20.05;14.65;;;18.40;55.70;;;;;;5019470;28;20030;-59
2022/03/20 12:26:31;;;;;;;17.85;13.98;;;18.50;55.70;;;;;;5020652;28;20507;-60
2022/03/20 12:29:27;;;;;;;18.98;14.02;;;18.50;55.50;;;;;;5013221;28;20099;-60
2022/03/20 12:32:14;;;;;;;;;;;18.60;55.40;;;;;;5020675;28;20032;-60
2022/03/20 12:34:44;;;;;;;16.98;13.32;;;18.60;55.30;;;;;;5023403;28;19925;-60
2022/03/20 12:37:28;;;;;;;18.35;13.60;;;18.70;55.30;;;;;;5026404;28;20026;-60
2022/03/20 12:39:57;;;;;;;17.42;13.20;;;18.70;55.40;;;;;;5021356;28;20033;-60
2022/03/20 12:42:23;;;;;;;18.10;13.05;;;18.80;55.30;;;;;;5028233;28;20077;-60
2022/03/20 12:44:50;;;;;;;17.30;12.13;;;18.80;55.20;;;;;;5023020;28;20057;-60
2022/03/20 12:47:20;;;;;;;20.35;13.38;;;18.90;55.20;;;;;;5028382;28;20025;-60
2022/03/20 12:49:55;;;;;;;18.25;12.32;;;18.90;55.20;;;;;;5017774;28;20029;-60
2022/03/20 12:52:21;;;;;;;18.17;12.20;;;19.00;55.20;;;;;;5020616;28;20037;-60
2022/03/20 12:54:54;;;;;;;20.67;12.30;;;19.10;55.50;;;;;;5020260;28;20635;-60
2022/03/20 12:57:44;;;;;;;16.60;11.98;;;19.10;55.00;;;;;;5024970;28;20499;-60
2022/03/20 13:00:12;;;;;;;17.35;11.85;;;19.20;54.90;;;;;;5019808;28;20030;-59